Terminal Aerodrome Forecast
Issued by NWS Blacksburg, VA

Home | Current Version | Previous Version | Text Only | Print | Product List | Glossary On
Versions: 1 2 3 4 5 6 7 8 9 10 11 12 13 14 15 16 17 18 19 20 21 22 23 24 25 26
000
FTUS41 KRNK 182346
TAFLYH
TAF
KLYH 182346Z 1900/1924 18013G23KT P6SM SCT070 BKN250
     FM190600 18011G21KT P6SM BKN015 OVC060
     FM191300 18010G20KT P6SM VCSH OVC040
     FM191600 17015G25KT 5SM -SHRA BR VCTS SCT015 OVC045CB
     FM192200 16010G20KT 3SM TSRA BR BKN025 OVC045CB=

USA.gov is the U.S. government's official web portal to all federal, state and local government web resources and services.